sensor_id;sensor_type;location;lat;lon;timestamp;temperature;humidity
28725;DHT22;43472;48.980;9.646;2024-02-15T00:03:35;10.50;99.90
28725;DHT22;43472;48.980;9.646;2024-02-15T00:08:37;10.50;99.90
28725;DHT22;43472;48.980;9.646;2024-02-15T00:13:40;10.60;99.90
28725;DHT22;43472;48.980;9.646;2024-02-15T00:18:44;10.60;99.90
28725;DHT22;43472;48.980;9.646;2024-02-15T00:23:48;10.60;99.90
28725;DHT22;43472;48.980;9.646;2024-02-15T00:28:51;10.60;99.90
28725;DHT22;43472;48.980;9.646;2024-02-15T00:33:54;10.60;99.90
28725;DHT22;43472;48.980;9.646;2024-02-15T00:38:58;10.50;99.90
28725;DHT22;43472;48.980;9.646;2024-02-15T00:44:02;11.20;99.90
28725;DHT22;43472;48.980;9.646;2024-02-15T00:49:05;10.60;99.90
28725;DHT22;43472;48.980;9.646;2024-02-15T00:54:08;10.70;99.90
28725;DHT22;43472;48.980;9.646;2024-02-15T00:59:12;10.50;99.90
28725;DHT22;43472;48.980;9.646;2024-02-15T01:04:15;10.50;99.90
28725;DHT22;43472;48.980;9.646;2024-02-15T01:09:17;10.50;99.90
28725;DHT22;43472;48.980;9.646;2024-02-15T01:14:20;10.40;99.90
28725;DHT22;43472;48.980;9.646;2024-02-15T01:19:23;10.40;99.90
28725;DHT22;43472;48.980;9.646;2024-02-15T01:24:25;10.30;99.90
28725;DHT22;43472;48.980;9.646;2024-02-15T01:29:27;10.30;99.90
28725;DHT22;43472;48.980;9.646;2024-02-15T01:34:29;10.20;99.90
28725;DHT22;43472;48.980;9.646;2024-02-15T01:39:31;10.20;99.90
28725;DHT22;43472;48.980;9.646;2024-02-15T01:44:35;10.20;99.90
28725;DHT22;43472;48.980;9.646;2024-02-15T01:49:38;10.20;99.90
28725;DHT22;43472;48.980;9.646;2024-02-15T01:54:44;10.20;99.90
28725;DHT22;43472;48.980;9.646;2024-02-15T01:59:49;10.20;99.90
28725;DHT22;43472;48.980;9.646;2024-02-15T02:04:51;10.10;99.90
28725;DHT22;43472;48.980;9.646;2024-02-15T02:09:53;10.00;99.90
28725;DHT22;43472;48.980;9.646;2024-02-15T02:14:55;10.10;99.90
28725;DHT22;43472;48.980;9.646;2024-02-15T02:19:58;10.10;99.90
28725;DHT22;43472;48.980;9.646;2024-02-15T02:25:09;10.10;99.90
28725;DHT22;43472;48.980;9.646;2024-02-15T02:30:14;10.10;99.90
28725;DHT22;43472;48.980;9.646;2024-02-15T02:35:21;10.00;99.90
28725;DHT22;43472;48.980;9.646;2024-02-15T02:40:23;10.70;99.90
28725;DHT22;43472;48.980;9.646;2024-02-15T02:45:25;10.10;99.90
28725;DHT22;43472;48.980;9.646;2024-02-15T02:50:27;10.10;99.90
28725;DHT22;43472;48.980;9.646;2024-02-15T02:55:30;10.10;99.90
28725;DHT22;43472;48.980;9.646;2024-02-15T03:00:33;10.00;99.90
28725;DHT22;43472;48.980;9.646;2024-02-15T03:05:35;10.90;99.90
28725;DHT22;43472;48.980;9.646;2024-02-15T03:10:37;10.00;99.90
28725;DHT22;43472;48.980;9.646;2024-02-15T03:15:39;10.10;99.90
28725;DHT22;43472;48.980;9.646;2024-02-15T03:20:45;9.80;99.90
28725;DHT22;43472;48.980;9.646;2024-02-15T03:25:47;9.70;99.90
28725;DHT22;43472;48.980;9.646;2024-02-15T03:30:51;11.30;99.90
28725;DHT22;43472;48.980;9.646;2024-02-15T03:35:54;9.70;99.90
28725;DHT22;43472;48.980;9.646;2024-02-15T03:41:01;9.70;99.90
28725;DHT22;43472;48.980;9.646;2024-02-15T03:46:04;9.60;99.90
28725;DHT22;43472;48.980;9.646;2024-02-15T03:51:06;9.50;99.90
28725;DHT22;43472;48.980;9.646;2024-02-15T03:56:09;9.50;99.90
28725;DHT22;43472;48.980;9.646;2024-02-15T04:01:10;9.50;99.90
28725;DHT22;43472;48.980;9.646;2024-02-15T04:06:15;9.50;99.90
28725;DHT22;43472;48.980;9.646;2024-02-15T04:11:18;10.30;99.90
28725;DHT22;43472;48.980;9.646;2024-02-15T04:16:21;9.40;99.90
28725;DHT22;43472;48.980;9.646;2024-02-15T04:21:24;9.50;99.90
28725;DHT22;43472;48.980;9.646;2024-02-15T04:26:26;9.60;99.90
28725;DHT22;43472;48.980;9.646;2024-02-15T04:31:28;10.50;99.90
28725;DHT22;43472;48.980;9.646;2024-02-15T04:36:31;9.80;99.90
28725;DHT22;43472;48.980;9.646;2024-02-15T04:41:35;9.70;99.90
28725;DHT22;43472;48.980;9.646;2024-02-15T04:46:37;9.50;99.90
28725;DHT22;43472;48.980;9.646;2024-02-15T04:51:40;9.60;99.90
28725;DHT22;43472;48.980;9.646;2024-02-15T04:56:43;9.70;99.90
28725;DHT22;43472;48.980;9.646;2024-02-15T05:01:45;9.90;99.90
28725;DHT22;43472;48.980;9.646;2024-02-15T05:06:47;9.60;99.90
28725;DHT22;43472;48.980;9.646;2024-02-15T05:11:49;9.60;99.90
28725;DHT22;43472;48.980;9.646;2024-02-15T05:16:52;9.70;99.90
28725;DHT22;43472;48.980;9.646;2024-02-15T05:21:54;9.90;99.90
28725;DHT22;43472;48.980;9.646;2024-02-15T05:26:57;9.90;99.90
28725;DHT22;43472;48.980;9.646;2024-02-15T05:32:00;9.80;99.90
28725;DHT22;43472;48.980;9.646;2024-02-15T05:37:03;9.90;99.90
28725;DHT22;43472;48.980;9.646;2024-02-15T05:47:07;9.80;99.90
28725;DHT22;43472;48.980;9.646;2024-02-15T05:52:11;9.70;99.90
28725;DHT22;43472;48.980;9.646;2024-02-15T05:57:13;9.80;99.90
28725;DHT22;43472;48.980;9.646;2024-02-15T06:02:16;9.80;99.90
28725;DHT22;43472;48.980;9.646;2024-02-15T06:07:19;9.90;99.90
28725;DHT22;43472;48.980;9.646;2024-02-15T06:12:21;9.90;99.90
28725;DHT22;43472;48.980;9.646;2024-02-15T06:17:23;11.40;99.90
28725;DHT22;43472;48.980;9.646;2024-02-15T06:22:26;10.80;99.90
28725;DHT22;43472;48.980;9.646;2024-02-15T06:27:32;9.90;99.90
28725;DHT22;43472;48.980;9.646;2024-02-15T06:32:34;10.00;99.90
28725;DHT22;43472;48.980;9.646;2024-02-15T06:37:55;10.00;99.90
28725;DHT22;43472;48.980;9.646;2024-02-15T06:43:16;9.90;99.90
28725;DHT22;43472;48.980;9.646;2024-02-15T06:48:17;10.00;99.90
28725;DHT22;43472;48.980;9.646;2024-02-15T06:53:20;10.00;99.90
28725;DHT22;43472;48.980;9.646;2024-02-15T06:58:22;9.90;99.90
28725;DHT22;43472;48.980;9.646;2024-02-15T07:03:24;9.90;99.90
28725;DHT22;43472;48.980;9.646;2024-02-15T07:08:27;10.00;99.90
28725;DHT22;43472;48.980;9.646;2024-02-15T07:13:29;10.00;99.90
28725;DHT22;43472;48.980;9.646;2024-02-15T07:18:31;10.80;99.90
28725;DHT22;43472;48.980;9.646;2024-02-15T07:23:37;10.00;99.90
28725;DHT22;43472;48.980;9.646;2024-02-15T07:28:41;10.10;99.90
28725;DHT22;43472;48.980;9.646;2024-02-15T07:33:43;10.30;99.90
28725;DHT22;43472;48.980;9.646;2024-02-15T07:38:46;10.40;99.90
28725;DHT22;43472;48.980;9.646;2024-02-15T07:43:50;10.90;99.90
28725;DHT22;43472;48.980;9.646;2024-02-15T07:48:55;10.40;99.90
28725;DHT22;43472;48.980;9.646;2024-02-15T07:53:59;10.50;99.90
28725;DHT22;43472;48.980;9.646;2024-02-15T07:59:03;10.60;99.90
28725;DHT22;43472;48.980;9.646;2024-02-15T08:04:06;10.80;99.90
28725;DHT22;43472;48.980;9.646;2024-02-15T08:09:11;11.20;99.90
28725;DHT22;43472;48.980;9.646;2024-02-15T08:14:16;11.30;99.90
28725;DHT22;43472;48.980;9.646;2024-02-15T08:19:18;11.50;99.90
28725;DHT22;43472;48.980;9.646;2024-02-15T08:24:21;11.80;99.90
28725;DHT22;43472;48.980;9.646;2024-02-15T08:29:23;12.10;99.90
28725;DHT22;43472;48.980;9.646;2024-02-15T08:34:25;12.70;99.90
28725;DHT22;43472;48.980;9.646;2024-02-15T08:39:26;14.30;99.90
28725;DHT22;43472;48.980;9.646;2024-02-15T08:44:28;14.00;99.90
28725;DHT22;43472;48.980;9.646;2024-02-15T08:49:30;13.90;99.90
28725;DHT22;43472;48.980;9.646;2024-02-15T08:54:34;14.00;99.90
28725;DHT22;43472;48.980;9.646;2024-02-15T08:59:36;14.30;99.90
28725;DHT22;43472;48.980;9.646;2024-02-15T09:04:40;14.70;99.90
28725;DHT22;43472;48.980;9.646;2024-02-15T09:09:47;14.80;99.90
28725;DHT22;43472;48.980;9.646;2024-02-15T09:19:53;14.70;99.90
28725;DHT22;43472;48.980;9.646;2024-02-15T09:24:56;15.00;99.90
28725;DHT22;43472;48.980;9.646;2024-02-15T09:29:59;15.00;99.90
28725;DHT22;43472;48.980;9.646;2024-02-15T09:35:06;15.30;99.90
28725;DHT22;43472;48.980;9.646;2024-02-15T09:40:14;15.60;99.90
28725;DHT22;43472;48.980;9.646;2024-02-15T09:45:18;15.80;99.90
28725;DHT22;43472;48.980;9.646;2024-02-15T09:50:28;16.20;99.90
28725;DHT22;43472;48.980;9.646;2024-02-15T09:55:40;16.30;99.90
28725;DHT22;43472;48.980;9.646;2024-02-15T10:00:48;16.40;99.90
28725;DHT22;43472;48.980;9.646;2024-02-15T10:05:55;16.40;99.90
28725;DHT22;43472;48.980;9.646;2024-02-15T10:11:09;16.60;99.90
28725;DHT22;43472;48.980;9.646;2024-02-15T10:16:19;16.60;99.90
28725;DHT22;43472;48.980;9.646;2024-02-15T10:21:27;16.50;99.90
28725;DHT22;43472;48.980;9.646;2024-02-15T10:26:36;16.50;99.90
28725;DHT22;43472;48.980;9.646;2024-02-15T10:31:39;16.50;99.90
28725;DHT22;43472;48.980;9.646;2024-02-15T10:36:43;16.50;99.90
28725;DHT22;43472;48.980;9.646;2024-02-15T10:41:50;16.10;99.90
28725;DHT22;43472;48.980;9.646;2024-02-15T10:46:53;16.20;99.90
28725;DHT22;43472;48.980;9.646;2024-02-15T10:52:00;16.40;99.90
28725;DHT22;43472;48.980;9.646;2024-02-15T10:57:25;16.40;99.90
28725;DHT22;43472;48.980;9.646;2024-02-15T11:02:34;16.60;99.90
28725;DHT22;43472;48.980;9.646;2024-02-15T11:07:39;17.00;99.90
28725;DHT22;43472;48.980;9.646;2024-02-15T11:12:44;17.20;99.90
28725;DHT22;43472;48.980;9.646;2024-02-15T11:17:51;17.60;99.90
28725;DHT22;43472;48.980;9.646;2024-02-15T11:22:59;18.70;99.90
28725;DHT22;43472;48.980;9.646;2024-02-15T11:33:33;20.40;99.90
28725;DHT22;43472;48.980;9.646;2024-02-15T11:38:42;20.60;99.90
28725;DHT22;43472;48.980;9.646;2024-02-15T11:43:47;20.70;99.90
28725;DHT22;43472;48.980;9.646;2024-02-15T11:49:03;21.40;99.90
28725;DHT22;43472;48.980;9.646;2024-02-15T11:54:11;22.40;97.80
28725;DHT22;43472;48.980;9.646;2024-02-15T11:59:14;22.60;96.70
28725;DHT22;43472;48.980;9.646;2024-02-15T12:04:38;22.50;97.50
28725;DHT22;43472;48.980;9.646;2024-02-15T12:09:59;23.70;95.60
28725;DHT22;43472;48.980;9.646;2024-02-15T12:15:20;23.80;94.30
28725;DHT22;43472;48.980;9.646;2024-02-15T12:20:41;23.70;94.50
28725;DHT22;43472;48.980;9.646;2024-02-15T12:25:43;24.70;92.90
28725;DHT22;43472;48.980;9.646;2024-02-15T12:30:45;23.80;93.20
28725;DHT22;43472;48.980;9.646;2024-02-15T12:35:49;23.60;93.00
28725;DHT22;43472;48.980;9.646;2024-02-15T12:40:55;23.90;91.80
28725;DHT22;43472;48.980;9.646;2024-02-15T12:45:57;24.40;91.00
28725;DHT22;43472;48.980;9.646;2024-02-15T12:50:59;22.80;92.00
28725;DHT22;43472;48.980;9.646;2024-02-15T12:56:21;23.20;91.90
28725;DHT22;43472;48.980;9.646;2024-02-15T13:01:25;22.60;93.30
28725;DHT22;43472;48.980;9.646;2024-02-15T13:06:29;20.90;95.10
28725;DHT22;43472;48.980;9.646;2024-02-15T13:11:31;20.80;95.50
28725;DHT22;43472;48.980;9.646;2024-02-15T13:16:37;20.20;96.10
28725;DHT22;43472;48.980;9.646;2024-02-15T13:21:41;20.10;95.90
28725;DHT22;43472;48.980;9.646;2024-02-15T13:26:44;19.90;96.30
28725;DHT22;43472;48.980;9.646;2024-02-15T13:31:46;19.80;96.70
28725;DHT22;43472;48.980;9.646;2024-02-15T13:36:49;19.70;97.40
28725;DHT22;43472;48.980;9.646;2024-02-15T13:41:51;19.90;97.50
28725;DHT22;43472;48.980;9.646;2024-02-15T13:46:54;19.70;97.40
28725;DHT22;43472;48.980;9.646;2024-02-15T13:52:01;19.50;98.40
28725;DHT22;43472;48.980;9.646;2024-02-15T13:57:07;19.80;97.80
28725;DHT22;43472;48.980;9.646;2024-02-15T14:02:09;19.50;97.70
28725;DHT22;43472;48.980;9.646;2024-02-15T14:07:12;19.00;98.20
28725;DHT22;43472;48.980;9.646;2024-02-15T14:12:14;18.80;98.60
28725;DHT22;43472;48.980;9.646;2024-02-15T14:17:18;18.20;99.90
28725;DHT22;43472;48.980;9.646;2024-02-15T14:22:21;18.00;99.90
28725;DHT22;43472;48.980;9.646;2024-02-15T14:27:25;17.60;99.90
28725;DHT22;43472;48.980;9.646;2024-02-15T14:32:27;17.60;99.90
28725;DHT22;43472;48.980;9.646;2024-02-15T14:37:48;17.40;99.90
28725;DHT22;43472;48.980;9.646;2024-02-15T14:42:50;17.30;99.90
28725;DHT22;43472;48.980;9.646;2024-02-15T14:47:58;17.20;99.90
28725;DHT22;43472;48.980;9.646;2024-02-15T14:53:01;17.00;99.90
28725;DHT22;43472;48.980;9.646;2024-02-15T14:58:03;17.30;99.90
28725;DHT22;43472;48.980;9.646;2024-02-15T15:03:05;17.50;99.90
28725;DHT22;43472;48.980;9.646;2024-02-15T15:08:07;17.40;99.90
28725;DHT22;43472;48.980;9.646;2024-02-15T15:13:28;17.30;99.90
28725;DHT22;43472;48.980;9.646;2024-02-15T15:18:31;17.00;99.90
28725;DHT22;43472;48.980;9.646;2024-02-15T15:23:36;16.80;99.90
28725;DHT22;43472;48.980;9.646;2024-02-15T15:28:38;16.80;99.90
28725;DHT22;43472;48.980;9.646;2024-02-15T15:33:41;16.50;99.90
28725;DHT22;43472;48.980;9.646;2024-02-15T15:38:43;16.40;99.90
28725;DHT22;43472;48.980;9.646;2024-02-15T15:43:45;16.30;99.90
28725;DHT22;43472;48.980;9.646;2024-02-15T15:48:48;16.20;99.90
28725;DHT22;43472;48.980;9.646;2024-02-15T15:53:50;16.10;99.90
28725;DHT22;43472;48.980;9.646;2024-02-15T15:58:53;16.00;99.90
28725;DHT22;43472;48.980;9.646;2024-02-15T16:03:55;16.00;99.90
28725;DHT22;43472;48.980;9.646;2024-02-15T16:08:58;15.70;99.90
28725;DHT22;43472;48.980;9.646;2024-02-15T16:19:04;15.40;99.90
28725;DHT22;43472;48.980;9.646;2024-02-15T16:24:06;15.30;99.90
28725;DHT22;43472;48.980;9.646;2024-02-15T16:29:09;15.10;99.90
28725;DHT22;43472;48.980;9.646;2024-02-15T16:39:14;14.90;99.90
28725;DHT22;43472;48.980;9.646;2024-02-15T16:44:19;14.90;99.90
28725;DHT22;43472;48.980;9.646;2024-02-15T16:49:21;14.50;99.90
28725;DHT22;43472;48.980;9.646;2024-02-15T17:09:37;14.40;99.90
28725;DHT22;43472;48.980;9.646;2024-02-15T17:14:39;14.40;99.90
28725;DHT22;43472;48.980;9.646;2024-02-15T17:19:43;14.30;99.90
28725;DHT22;43472;48.980;9.646;2024-02-15T17:24:45;14.10;99.90
28725;DHT22;43472;48.980;9.646;2024-02-15T17:29:47;14.00;99.90
28725;DHT22;43472;48.980;9.646;2024-02-15T17:39:51;13.80;99.90
28725;DHT22;43472;48.980;9.646;2024-02-15T17:44:53;13.70;99.90
28725;DHT22;43472;48.980;9.646;2024-02-15T17:49:55;13.40;99.90
28725;DHT22;43472;48.980;9.646;2024-02-15T18:00:02;13.30;99.90
28725;DHT22;43472;48.980;9.646;2024-02-15T18:05:04;13.20;99.90
28725;DHT22;43472;48.980;9.646;2024-02-15T18:10:09;13.10;99.90
28725;DHT22;43472;48.980;9.646;2024-02-15T18:15:17;13.10;99.90
28725;DHT22;43472;48.980;9.646;2024-02-15T18:20:27;12.90;99.90
28725;DHT22;43472;48.980;9.646;2024-02-15T18:25:29;12.70;99.90
28725;DHT22;43472;48.980;9.646;2024-02-15T18:30:31;12.60;99.90
28725;DHT22;43472;48.980;9.646;2024-02-15T18:35:37;12.50;99.90
28725;DHT22;43472;48.980;9.646;2024-02-15T18:50:51;12.10;99.90
28725;DHT22;43472;48.980;9.646;2024-02-15T18:55:54;12.10;99.90
28725;DHT22;43472;48.980;9.646;2024-02-15T19:06:01;11.60;99.90
28725;DHT22;43472;48.980;9.646;2024-02-15T19:16:06;11.50;99.90
28725;DHT22;43472;48.980;9.646;2024-02-15T19:21:09;11.50;99.90
28725;DHT22;43472;48.980;9.646;2024-02-15T19:26:12;11.30;99.90
28725;DHT22;43472;48.980;9.646;2024-02-15T19:31:14;11.30;99.90
28725;DHT22;43472;48.980;9.646;2024-02-15T19:36:16;11.30;99.90
28725;DHT22;43472;48.980;9.646;2024-02-15T19:46:32;11.20;99.90
28725;DHT22;43472;48.980;9.646;2024-02-15T19:56:37;11.20;99.90
28725;DHT22;43472;48.980;9.646;2024-02-15T20:01:40;11.20;99.90
28725;DHT22;43472;48.980;9.646;2024-02-15T20:06:47;11.00;99.90
28725;DHT22;43472;48.980;9.646;2024-02-15T20:11:50;11.00;99.90
28725;DHT22;43472;48.980;9.646;2024-02-15T20:16:52;10.90;99.90
28725;DHT22;43472;48.980;9.646;2024-02-15T20:21:56;10.90;99.90
28725;DHT22;43472;48.980;9.646;2024-02-15T20:26:58;10.80;99.90
28725;DHT22;43472;48.980;9.646;2024-02-15T20:32:01;10.80;99.90
28725;DHT22;43472;48.980;9.646;2024-02-15T20:37:03;10.80;99.90
28725;DHT22;43472;48.980;9.646;2024-02-15T20:42:06;10.80;99.90
28725;DHT22;43472;48.980;9.646;2024-02-15T20:47:08;11.10;99.90
28725;DHT22;43472;48.980;9.646;2024-02-15T20:52:13;10.50;99.90
28725;DHT22;43472;48.980;9.646;2024-02-15T20:57:15;10.50;99.90
28725;DHT22;43472;48.980;9.646;2024-02-15T21:02:19;10.50;99.90
28725;DHT22;43472;48.980;9.646;2024-02-15T21:07:22;10.50;99.90
28725;DHT22;43472;48.980;9.646;2024-02-15T21:12:25;10.50;99.90
28725;DHT22;43472;48.980;9.646;2024-02-15T21:22:32;10.50;99.90
28725;DHT22;43472;48.980;9.646;2024-02-15T21:47:48;10.30;99.90
28725;DHT22;43472;48.980;9.646;2024-02-15T21:52:50;10.20;99.90
28725;DHT22;43472;48.980;9.646;2024-02-15T21:57:54;10.20;99.90
28725;DHT22;43472;48.980;9.646;2024-02-15T22:02:59;10.00;99.90
28725;DHT22;43472;48.980;9.646;2024-02-15T22:08:03;10.10;99.90
28725;DHT22;43472;48.980;9.646;2024-02-15T22:13:05;10.10;99.90
28725;DHT22;43472;48.980;9.646;2024-02-15T22:33:19;10.00;99.90
28725;DHT22;43472;48.980;9.646;2024-02-15T22:38:26;10.00;99.90
28725;DHT22;43472;48.980;9.646;2024-02-15T22:53:42;9.90;99.90
28725;DHT22;43472;48.980;9.646;2024-02-15T22:58:44;9.80;99.90
28725;DHT22;43472;48.980;9.646;2024-02-15T23:03:46;10.10;99.90
28725;DHT22;43472;48.980;9.646;2024-02-15T23:08:48;10.10;99.90
28725;DHT22;43472;48.980;9.646;2024-02-15T23:39:03;9.80;99.90
28725;DHT22;43472;48.980;9.646;2024-02-15T23:44:32;9.60;99.90
28725;DHT22;43472;48.980;9.646;2024-02-15T23:49:35;9.60;99.90
28725;DHT22;43472;48.980;9.646;2024-02-15T23:54:37;9.60;99.90
